Time;durP1;ratioP1;P1;durP2;ratioP2;P2;SDS_P1;SDS_P2;PMS_P1;PMS_P2;Temp;Humidity;BMP_temperature;BMP_pressure;BME280_temperature;BME280_humidity;BME280_pressure;Samples;Min_cycle;Max_cycle;Signal;HPM_P1;HPM_P2
2023/07/10 04:32:48;;;;;;;8.98;2.83;;;17.10;78.00;;;;;;4856135;29;20591;-80
2023/07/10 04:35:14;;;;;;;8.50;3.22;;;17.20;77.80;;;;;;4858722;29;20515;-80
2023/07/10 04:37:39;;;;;;;9.63;2.47;;;17.20;77.70;;;;;;4862056;29;20033;-80
2023/07/10 04:40:06;;;;;;;11.40;2.72;;;17.20;77.50;;;;;;4875492;29;20117;-80
2023/07/10 04:42:31;;;;;;;10.75;3.30;;;17.20;77.20;;;;;;4845363;29;20829;-80
2023/07/10 04:44:57;;;;;;;9.18;2.75;;;17.20;77.60;;;;;;4861063;29;20033;-80
2023/07/10 04:47:23;;;;;;;8.20;2.90;;;17.00;77.90;;;;;;4862005;29;20471;-80
2023/07/10 04:49:48;;;;;;;6.68;2.85;;;17.10;77.80;;;;;;4862065;29;20029;-79
2023/07/10 04:52:14;;;;;;;9.52;3.50;;;17.10;77.90;;;;;;4861330;29;20033;-79
2023/07/10 04:54:39;;;;;;;7.68;3.05;;;17.10;77.70;;;;;;4861881;29;20089;-80
2023/07/10 04:57:06;;;;;;;7.57;2.92;;;17.10;77.40;;;;;;4862034;29;20500;-77
2023/07/10 04:59:31;;;;;;;8.85;2.97;;;17.20;77.30;;;;;;4859665;29;20821;-79
2023/07/10 05:01:57;;;;;;;8.93;3.25;;;17.20;77.20;;;;;;4856721;29;20021;-79
2023/07/10 05:04:22;;;;;;;9.48;2.88;;;17.20;77.40;;;;;;4863283;29;20025;-79
2023/07/10 05:06:51;;;;;;;11.48;3.60;;;17.00;77.90;;;;;;4879451;29;20036;-78
2023/07/10 05:09:17;;;;;;;7.82;2.92;;;17.00;78.40;;;;;;4859846;29;20121;-79
2023/07/10 05:11:43;;;;;;;11.10;2.80;;;17.00;78.10;;;;;;4858702;29;20065;-78
2023/07/10 05:14:08;;;;;;;11.35;3.35;;;17.10;78.20;;;;;;4864862;29;20052;-78
2023/07/10 05:16:34;;;;;;;7.68;3.58;;;17.10;78.20;;;;;;4865566;29;20029;-76
2023/07/10 05:18:59;;;;;;;9.80;3.25;;;17.20;78.00;;;;;;4865042;29;20030;-81
2023/07/10 05:21:25;;;;;;;10.80;3.78;;;17.10;78.40;;;;;;4841838;29;20030;-79
2023/07/10 05:23:51;;;;;;;8.00;3.13;;;17.20;78.40;;;;;;4870714;29;20033;-82
2023/07/10 05:26:19;;;;;;;15.88;4.47;;;17.20;78.30;;;;;;4879917;29;20033;-81
2023/07/10 05:28:46;;;;;;;6.43;2.85;;;17.30;78.60;;;;;;4860661;29;20030;-81
2023/07/10 05:31:12;;;;;;;11.85;3.60;;;17.20;79.40;;;;;;4855828;29;20129;-81
2023/07/10 05:33:38;;;;;;;10.88;3.40;;;17.10;79.70;;;;;;4880547;29;20120;-81
2023/07/10 05:36:07;;;;;;;11.65;4.07;;;17.20;79.60;;;;;;4881813;29;20244;-82
2023/07/10 05:38:34;;;;;;;15.27;4.43;;;17.20;79.50;;;;;;4881754;29;20025;-82
2023/07/10 05:41:01;;;;;;;10.77;4.03;;;17.20;79.60;;;;;;4883297;29;20037;-81
2023/07/10 05:43:28;;;;;;;12.93;3.92;;;17.30;79.50;;;;;;4881240;29;20074;-81
2023/07/10 05:45:54;;;;;;;12.20;4.00;;;17.30;79.40;;;;;;4878859;29;20049;-85
2023/07/10 05:48:20;;;;;;;10.90;3.88;;;17.30;79.60;;;;;;4865392;29;20101;-84
2023/07/10 05:50:48;;;;;;;11.55;4.53;;;17.40;79.60;;;;;;4882024;29;20769;-85
2023/07/10 05:53:14;;;;;;;9.65;3.65;;;17.30;79.60;;;;;;4882775;29;20029;-80
2023/07/10 05:55:47;;;;;;;11.63;3.42;;;17.50;79.50;;;;;;4881597;29;20052;-81
2023/07/10 05:58:14;;;;;;;15.77;4.18;;;17.50;79.30;;;;;;4882842;29;20033;-82
2023/07/10 06:00:41;;;;;;;14.32;3.35;;;17.50;79.60;;;;;;4866365;29;20037;-81
2023/07/10 06:03:06;;;;;;;12.38;3.75;;;17.60;79.60;;;;;;4882777;29;20036;-80
2023/07/10 06:05:32;;;;;;;10.70;3.30;;;17.70;79.20;;;;;;4857800;29;20032;-83
2023/07/10 06:07:58;;;;;;;7.93;3.58;;;17.70;79.40;;;;;;4877515;29;20032;-81
2023/07/10 06:10:24;;;;;;;13.00;3.97;;;17.70;79.00;;;;;;4877355;29;20085;-81
2023/07/10 06:12:49;;;;;;;10.35;3.80;;;17.80;79.20;;;;;;4877000;29;20044;-80
2023/07/10 06:15:15;;;;;;;10.10;4.20;;;17.80;79.30;;;;;;4881238;29;20051;-80
2023/07/10 06:17:41;;;;;;;13.73;4.43;;;17.90;79.20;;;;;;4865624;29;20037;-80
2023/07/10 06:20:07;;;;;;;15.98;4.72;;;17.90;79.10;;;;;;4886677;29;20036;-82
2023/07/10 06:22:32;;;;;;;14.00;4.88;;;17.80;79.70;;;;;;4901345;29;20024;-81
2023/07/10 06:24:58;;;;;;;12.55;4.60;;;17.90;79.70;;;;;;4889024;29;20047;-81
2023/07/10 06:27:24;;;;;;;13.45;5.05;;;18.00;79.30;;;;;;4882434;29;20492;-81
2023/07/10 06:29:51;;;;;;;11.88;4.47;;;18.00;79.70;;;;;;4881733;29;20032;-81
2023/07/10 06:32:20;;;;;;;11.00;4.35;;;18.20;79.40;;;;;;4882646;29;20508;-81
2023/07/10 06:34:46;;;;;;;10.40;3.90;;;18.30;79.30;;;;;;4881945;29;20032;-81
2023/07/10 06:37:11;;;;;;;11.10;4.18;;;18.30;78.90;;;;;;4882258;29;20041;-81
2023/07/10 06:39:37;;;;;;;12.38;3.78;;;18.30;78.90;;;;;;4882146;29;20421;-81
2023/07/10 06:42:04;;;;;;;10.68;3.72;;;18.50;78.70;;;;;;4881470;29;20032;-81
2023/07/10 06:44:29;;;;;;;9.82;3.35;;;18.60;78.70;;;;;;4876468;29;20112;-81
2023/07/10 06:46:55;;;;;;;10.50;3.63;;;18.70;78.50;;;;;;4887417;29;20037;-81
2023/07/10 06:49:23;;;;;;;11.50;4.38;;;18.80;78.40;;;;;;4889519;29;20036;-81
2023/07/10 06:51:49;;;;;;;10.43;3.50;;;18.80;78.60;;;;;;4888843;29;20107;-81
2023/07/10 06:54:15;;;;;;;9.23;3.30;;;18.80;78.60;;;;;;4890708;29;20056;-80
2023/07/10 06:56:40;;;;;;;10.57;3.05;;;19.00;78.20;;;;;;4888218;29;20064;-80
2023/07/10 06:59:06;;;;;;;9.38;3.30;;;19.10;78.00;;;;;;4891013;29;20119;-80
2023/07/10 07:01:31;;;;;;;8.05;3.30;;;19.20;77.70;;;;;;4889385;29;20033;-81
2023/07/10 07:03:57;;;;;;;7.93;3.10;;;19.30;77.60;;;;;;4890934;29;20463;-80
2023/07/10 07:06:23;;;;;;;9.80;2.92;;;19.30;77.70;;;;;;4887965;29;20036;-84
2023/07/10 07:08:51;;;;;;;9.93;3.20;;;19.40;77.70;;;;;;4888505;29;20083;-87
2023/07/10 07:11:29;;;;;;;8.02;2.60;;;19.60;77.60;;;;;;4893068;29;20083;-88
2023/07/10 07:13:54;;;;;;;10.20;2.28;;;19.70;77.40;;;;;;4888547;29;20039;-88
2023/07/10 07:16:20;;;;;;;8.55;2.22;;;19.80;77.30;;;;;;4892585;29;20024;-86
2023/07/10 07:18:50;;;;;;;10.50;2.97;;;19.80;77.20;;;;;;4889681;29;20029;-85
2023/07/10 07:21:16;;;;;;;8.15;2.28;;;20.00;76.90;;;;;;4889486;29;20089;-86
2023/07/10 07:23:47;;;;;;;9.77;2.72;;;20.20;76.40;;;;;;4888106;29;20025;-85
2023/07/10 07:26:20;;;;;;;5.88;2.20;;;20.30;76.40;;;;;;4892637;29;20032;-88
2023/07/10 07:28:47;;;;;;;5.63;1.77;;;20.30;76.30;;;;;;4890544;29;20029;-86
2023/07/10 07:31:12;;;;;;;8.80;2.10;;;20.50;75.90;;;;;;4886935;29;20049;-79
2023/07/10 07:33:38;;;;;;;8.65;2.00;;;20.70;75.10;;;;;;4884110;29;20034;-79
2023/07/10 07:36:04;;;;;;;9.82;2.35;;;20.90;74.40;;;;;;4889027;29;20028;-79
2023/07/10 07:38:29;;;;;;;6.57;2.13;;;21.30;73.50;;;;;;4890939;29;20086;-79
2023/07/10 07:40:59;;;;;;;7.47;2.58;;;21.70;72.30;;;;;;4887520;29;20127;-79
2023/07/10 07:43:25;;;;;;;7.97;2.60;;;22.70;69.60;;;;;;4889736;29;20036;-79
2023/07/10 07:45:52;;;;;;;7.68;2.30;;;23.40;67.70;;;;;;4886004;29;20080;-79
2023/07/10 07:48:18;;;;;;;10.20;2.50;;;24.10;64.30;;;;;;4887074;29;20035;-79
2023/07/10 07:50:57;;;;;;;9.70;2.58;;;24.30;63.80;;;;;;4890189;29;20408;-79
2023/07/10 07:53:23;;;;;;;5.95;2.00;;;25.30;60.20;;;;;;4885564;29;20480;-79
2023/07/10 07:55:48;;;;;;;6.30;1.95;;;26.20;58.00;;;;;;4888800;29;20108;-79
2023/07/10 07:58:14;;;;;;;7.78;1.75;;;26.90;55.40;;;;;;4889951;29;20033;-80
2023/07/10 08:00:40;;;;;;;8.80;2.05;;;27.60;53.80;;;;;;4882291;29;20061;-80
2023/07/10 08:03:09;;;;;;;7.55;1.77;;;28.00;52.10;;;;;;4892191;29;20052;-79
2023/07/10 08:05:35;;;;;;;5.18;1.85;;;28.10;50.90;;;;;;4878629;29;20037;-80
2023/07/10 08:08:01;;;;;;;8.02;2.00;;;28.70;50.30;;;;;;4880132;29;20045;-80
2023/07/10 08:10:31;;;;;;;6.28;1.80;;;29.30;49.00;;;;;;4879594;29;20032;-80
2023/07/10 08:12:56;;;;;;;5.82;2.28;;;29.60;47.80;;;;;;4880447;29;20139;-80
2023/07/10 08:15:22;;;;;;;8.18;1.90;;;29.30;47.90;;;;;;4879574;29;20037;-79
2023/07/10 08:17:47;;;;;;;5.95;1.92;;;29.60;47.60;;;;;;4878105;29;20064;-80
2023/07/10 08:20:13;;;;;;;7.30;1.65;;;29.80;47.40;;;;;;4873449;29;20033;-80
2023/07/10 08:22:39;;;;;;;6.80;1.73;;;30.10;46.30;;;;;;4876046;29;20045;-80
2023/07/10 08:25:06;;;;;;;6.90;1.83;;;30.30;46.00;;;;;;4884069;29;20049;-80
2023/07/10 08:27:32;;;;;;;8.23;1.80;;;30.40;44.90;;;;;;4890046;29;20017;-79
2023/07/10 08:29:57;;;;;;;3.90;1.42;;;29.90;45.30;;;;;;4875748;29;20626;-79
2023/07/10 08:32:23;;;;;;;6.53;1.92;;;28.90;46.60;;;;;;4892214;29;20085;-82
2023/07/10 08:34:49;;;;;;;8.13;1.70;;;28.30;48.40;;;;;;4886805;29;20029;-80
2023/07/10 08:37:14;;;;;;;6.82;1.70;;;28.50;47.80;;;;;;4881156;29;20596;-84
2023/07/10 08:39:42;;;;;;;4.85;1.55;;;27.90;49.40;;;;;;4881769;29;20047;-85
2023/07/10 08:42:19;;;;;;;5.95;1.50;;;28.30;47.90;;;;;;4891916;29;20435;-82
2023/07/10 08:44:51;;;;;;;7.25;1.40;;;28.80;47.40;;;;;;4887885;29;20065;-83
2023/07/10 08:47:24;;;;;;;7.78;1.77;;;28.50;46.60;;;;;;4891488;29;20068;-82
2023/07/10 08:49:58;;;;;;;7.38;1.88;;;27.70;47.70;;;;;;4888756;29;20037;-82
2023/07/10 08:52:49;;;;;;;8.93;1.70;;;27.80;47.70;;;;;;4888369;29;20036;-83
2023/07/10 08:55:27;;;;;;;6.80;1.88;;;28.20;47.20;;;;;;4887972;29;20042;-84
2023/07/10 08:58:02;;;;;;;7.75;1.92;;;28.60;46.20;;;;;;4890163;29;20056;-84
2023/07/10 09:00:34;;;;;;;5.68;1.67;;;28.60;46.00;;;;;;4880715;29;20492;-83
2023/07/10 09:03:16;;;;;;;8.68;2.05;;;28.90;45.70;;;;;;4883440;29;20460;-83
2023/07/10 09:05:47;;;;;;;7.07;1.63;;;28.90;45.50;;;;;;4882093;29;20047;-81
2023/07/10 09:08:14;;;;;;;8.67;1.73;;;29.30;45.00;;;;;;4883363;29;20040;-82
2023/07/10 09:10:46;;;;;;;5.65;1.80;;;29.70;45.20;;;;;;4868024;29;20453;-82
2023/07/10 09:13:16;;;;;;;4.47;1.67;;;29.60;43.90;;;;;;4881055;29;20107;-80
2023/07/10 09:15:49;;;;;;;7.65;1.98;;;29.80;43.70;;;;;;4883303;29;20041;-81
2023/07/10 09:18:36;;;;;;;4.93;1.48;;;29.90;43.30;;;;;;4881396;29;20041;-82
2023/07/10 09:21:14;;;;;;;7.25;1.60;;;29.80;43.40;;;;;;4880791;29;20025;-80
2023/07/10 09:23:39;;;;;;;4.97;1.30;;;29.80;42.70;;;;;;4881789;29;20065;-81
2023/07/10 09:26:14;;;;;;;7.97;1.70;;;30.00;41.80;;;;;;4880417;29;20030;-81
2023/07/10 09:28:41;;;;;;;5.10;1.73;;;29.70;42.60;;;;;;4881540;29;20040;-82
2023/07/10 09:31:39;;;;;;;5.25;1.75;;;29.80;42.30;;;;;;4882405;29;20041;-81
2023/07/10 09:34:08;;;;;;;7.65;2.08;;;29.60;43.30;;;;;;4866794;29;20883;-82
2023/07/10 09:36:34;;;;;;;4.25;1.63;;;29.70;43.40;;;;;;4881071;29;20055;-81
2023/07/10 09:39:02;;;;;;;4.90;1.40;;;29.30;43.40;;;;;;4882972;29;20077;-81
2023/07/10 09:41:29;;;;;;;6.97;2.38;;;29.20;43.00;;;;;;4868356;29;20025;-81
2023/07/10 09:43:58;;;;;;;6.32;1.90;;;29.60;43.00;;;;;;4881168;29;20061;-81
2023/07/10 09:46:31;;;;;;;4.93;1.67;;;29.80;42.40;;;;;;4880372;29;20054;-82
2023/07/10 09:49:00;;;;;;;10.45;1.80;;;29.80;42.20;;;;;;4879749;29;20025;-81
2023/07/10 09:51:27;;;;;;;7.75;5.00;;;29.70;41.40;;;;;;4880914;29;20104;-81
2023/07/10 09:53:59;;;;;;;5.80;2.55;;;29.70;42.00;;;;;;4882434;29;20162;-81
2023/07/10 09:56:35;;;;;;;5.65;1.92;;;29.70;42.50;;;;;;4879248;29;20029;-85
2023/07/10 09:59:12;;;;;;;4.38;1.35;;;29.70;42.30;;;;;;4884328;29;20128;-83
2023/07/10 10:01:38;;;;;;;3.63;1.60;;;29.40;42.10;;;;;;4881238;29;20097;-84
2023/07/10 10:04:03;;;;;;;6.07;1.63;;;29.30;43.00;;;;;;4863069;29;20053;-87
2023/07/10 10:06:31;;;;;;;6.70;1.70;;;29.00;43.30;;;;;;4880697;29;20567;-86
2023/07/10 10:08:57;;;;;;;6.53;1.50;;;29.50;43.20;;;;;;4881427;29;20048;-85
2023/07/10 10:11:41;;;;;;;6.35;1.60;;;29.30;43.80;;;;;;4879354;29;20124;-85
2023/07/10 10:14:14;;;;;;;7.28;1.98;;;29.80;42.50;;;;;;4879872;29;20024;-85
2023/07/10 10:16:45;;;;;;;5.30;2.55;;;30.10;42.30;;;;;;4880790;29;20050;-83
2023/07/10 10:19:20;;;;;;;5.65;1.60;;;30.40;40.90;;;;;;4880895;29;20033;-86
2023/07/10 10:21:45;;;;;;;8.68;1.80;;;30.60;41.20;;;;;;4862781;29;20440;-84
2023/07/10 10:24:13;;;;;;;7.90;1.73;;;31.00;40.80;;;;;;4895970;29;20033;-85
2023/07/10 10:27:16;;;;;;;5.22;1.80;;;30.30;40.30;;;;;;4879284;29;20114;-84
2023/07/10 10:30:19;;;;;;;5.60;1.83;;;30.60;39.90;;;;;;4893221;29;20054;-85
2023/07/10 10:33:14;;;;;;;4.72;1.35;;;30.40;40.60;;;;;;4861470;29;20055;-83
2023/07/10 10:35:55;;;;;;;4.80;1.60;;;29.70;41.30;;;;;;4864031;29;20028;-84
2023/07/10 10:39:06;;;;;;;5.90;1.70;;;29.30;42.60;;;;;;4870292;29;20556;-86
2023/07/10 10:42:24;;;;;;;6.35;1.52;;;29.80;42.10;;;;;;4862782;29;20044;-87
2023/07/10 10:45:10;;;;;;;5.75;1.27;;;29.20;41.10;;;;;;4797542;29;20398;-86
2023/07/10 10:48:10;;;;;;;5.53;1.35;;;28.80;43.30;;;;;;4795581;29;20041;-85
2023/07/10 10:51:16;;;;;;;10.00;1.60;;;28.60;43.90;;;;;;4820994;29;20091;-86
2023/07/10 10:53:59;;;;;;;4.75;1.40;;;28.50;42.00;;;;;;4806970;29;20050;-87
2023/07/10 10:56:31;;;;;;;4.35;1.23;;;28.30;43.70;;;;;;4823245;29;20046;-85
2023/07/10 10:59:27;;;;;;;5.10;1.40;;;27.80;43.70;;;;;;4856202;29;20047;-87
2023/07/10 11:02:12;;;;;;;4.40;1.35;;;27.80;45.50;;;;;;4878940;29;20111;-88
2023/07/10 11:04:43;;;;;;;4.93;1.30;;;27.80;44.80;;;;;;4880118;29;20036;-86
2023/07/10 11:07:12;;;;;;;5.55;1.45;;;27.70;44.60;;;;;;4865268;29;20029;-85
2023/07/10 11:09:49;;;;;;;5.90;1.33;;;27.80;44.20;;;;;;4878946;29;20041;-86
2023/07/10 11:12:23;;;;;;;5.70;1.52;;;27.80;45.00;;;;;;4880374;29;20036;-84
2023/07/10 11:14:53;;;;;;;3.85;1.52;;;27.80;43.40;;;;;;4862970;29;20580;-86
2023/07/10 11:17:18;;;;;;;4.32;1.38;;;27.90;44.90;;;;;;4880962;29;20029;-86
2023/07/10 11:19:45;;;;;;;4.53;1.23;;;27.80;43.40;;;;;;4880338;29;20029;-84
2023/07/10 11:22:25;;;;;;;6.20;1.40;;;27.80;44.30;;;;;;4894993;29;20033;-86
2023/07/10 11:24:52;;;;;;;3.95;1.25;;;27.60;43.80;;;;;;4878897;29;20052;-85
2023/07/10 11:27:36;;;;;;;5.50;1.50;;;27.60;43.70;;;;;;4895464;29;20096;-84
2023/07/10 11:30:14;;;;;;;5.38;1.50;;;27.80;44.10;;;;;;4877573;29;20028;-82
2023/07/10 11:33:01;;;;;;;7.65;1.60;;;27.80;44.20;;;;;;4882587;29;20100;-78
2023/07/10 11:35:27;;;;;;;7.47;1.55;;;27.70;44.10;;;;;;4881440;29;20049;-85
2023/07/10 11:38:02;;;;;;;7.70;1.75;;;27.70;44.20;;;;;;4880559;29;20108;-81
2023/07/10 11:40:27;;;;;;;6.03;1.50;;;27.80;44.60;;;;;;4884355;29;20085;-84
2023/07/10 11:43:01;;;;;;;3.53;1.15;;;27.80;43.10;;;;;;4876953;29;20026;-84
2023/07/10 11:45:42;;;;;;;5.75;1.67;;;27.70;43.90;;;;;;4878174;29;20029;-85
2023/07/10 11:48:37;;;;;;;6.47;1.60;;;27.60;43.70;;;;;;4878748;29;20025;-83
2023/07/10 11:51:03;;;;;;;6.28;1.40;;;27.30;44.40;;;;;;4878891;29;20484;-86
2023/07/10 11:53:29;;;;;;;4.28;1.48;;;27.40;45.00;;;;;;4881680;29;20096;-84
2023/07/10 11:56:01;;;;;;;5.25;1.55;;;27.40;43.40;;;;;;4882711;29;20037;-82
2023/07/10 11:58:30;;;;;;;5.18;1.10;;;27.60;45.50;;;;;;4882233;29;20722;-81
2023/07/10 12:01:16;;;;;;;5.07;1.48;;;27.70;43.70;;;;;;4867595;29;20072;-81
2023/07/10 12:03:42;;;;;;;4.28;1.70;;;27.50;43.90;;;;;;4879899;29;20057;-83
2023/07/10 12:06:25;;;;;;;4.25;1.35;;;27.50;45.10;;;;;;4883233;29;20036;-80
2023/07/10 12:08:59;;;;;;;4.60;1.40;;;27.70;42.90;;;;;;4882034;29;20029;-90
2023/07/10 12:11:35;;;;;;;4.20;1.20;;;27.70;42.70;;;;;;4884233;29;20025;-82
2023/07/10 12:14:11;;;;;;;3.90;1.30;;;27.80;42.20;;;;;;4881956;29;20025;-83
2023/07/10 12:16:51;;;;;;;4.43;1.20;;;27.80;42.70;;;;;;4880293;29;20037;-80
2023/07/10 12:19:20;;;;;;;2.78;1.10;;;27.80;41.00;;;;;;4873133;29;20568;-78
2023/07/10 12:21:46;;;;;;;4.00;1.52;;;27.80;40.30;;;;;;4878020;29;20039;-78
2023/07/10 12:24:16;;;;;;;5.53;1.17;;;27.80;41.40;;;;;;4876905;29;20767;-78
2023/07/10 12:26:43;;;;;;;5.07;1.30;;;27.70;39.70;;;;;;4870511;29;20028;-79
2023/07/10 12:29:14;;;;;;;4.50;1.13;;;27.70;39.10;;;;;;4882950;29;20031;-79
2023/07/10 12:31:41;;;;;;;5.22;1.27;;;27.80;40.70;;;;;;4871417;29;20053;-78
2023/07/10 12:34:19;;;;;;;4.15;1.60;;;27.90;40.60;;;;;;4880424;29;20045;-78
2023/07/10 12:36:50;;;;;;;4.05;1.17;;;28.10;40.50;;;;;;4866596;29;20109;-79
2023/07/10 12:39:15;;;;;;;4.65;1.23;;;28.20;41.40;;;;;;4882578;29;20511;-79
2023/07/10 12:41:46;;;;;;;3.97;1.20;;;28.20;39.50;;;;;;4876396;29;20041;-78
2023/07/10 12:44:22;;;;;;;3.83;1.13;;;28.00;38.60;;;;;;4861863;29;20026;-79
2023/07/10 12:46:55;;;;;;;3.50;1.10;;;28.10;39.20;;;;;;4879900;29;20093;-79
2023/07/10 12:49:27;;;;;;;5.22;1.75;;;28.10;40.00;;;;;;4895789;29;20041;-79
2023/07/10 12:51:52;;;;;;;4.63;1.15;;;28.20;39.60;;;;;;4872056;29;20033;-78
2023/07/10 12:54:20;;;;;;;3.47;1.15;;;28.10;38.80;;;;;;4882406;29;20040;-78
2023/07/10 12:56:47;;;;;;;4.55;1.52;;;28.20;39.60;;;;;;4866450;29;20029;-78
2023/07/10 12:59:20;;;;;;;3.83;1.25;;;28.00;39.40;;;;;;4883239;29;20033;-78
2023/07/10 13:01:51;;;;;;;3.80;1.63;;;27.80;40.90;;;;;;4882134;29;20037;-78
2023/07/10 13:04:26;;;;;;;6.38;1.60;;;27.90;39.80;;;;;;4880317;29;20769;-77
2023/07/10 13:07:11;;;;;;;4.93;1.40;;;27.80;40.30;;;;;;4883052;29;20492;-78
2023/07/10 13:09:37;;;;;;;5.72;1.70;;;27.80;40.60;;;;;;4894117;29;20040;-78
2023/07/10 13:12:04;;;;;;;5.30;1.63;;;27.60;42.10;;;;;;4880520;29;20033;-78
2023/07/10 13:14:33;;;;;;;5.10;1.80;;;27.70;41.20;;;;;;4854990;29;20115;-78
2023/07/10 13:16:59;;;;;;;5.25;1.60;;;27.40;40.80;;;;;;4883500;29;20085;-78
2023/07/10 13:19:25;;;;;;;4.78;1.60;;;27.40;42.30;;;;;;4883260;29;20047;-78
2023/07/10 13:21:52;;;;;;;4.95;1.52;;;27.70;42.80;;;;;;4882060;29;20037;-79
2023/07/10 13:24:17;;;;;;;4.57;1.67;;;28.00;42.00;;;;;;4882478;29;20103;-78
2023/07/10 13:26:46;;;;;;;4.60;1.70;;;28.20;42.10;;;;;;4884630;29;20698;-78
2023/07/10 13:29:13;;;;;;;4.43;1.73;;;28.30;41.80;;;;;;4881796;29;20124;-79
2023/07/10 13:31:39;;;;;;;5.80;2.00;;;28.30;42.00;;;;;;4872295;29;20057;-79
2023/07/10 13:34:04;;;;;;;6.30;1.90;;;28.30;43.00;;;;;;4882408;29;20483;-78
2023/07/10 13:36:32;;;;;;;7.70;2.55;;;28.30;42.60;;;;;;4882926;29;20037;-78
2023/07/10 13:38:58;;;;;;;5.97;1.80;;;28.20;43.00;;;;;;4854111;29;20041;-78
2023/07/10 13:41:25;;;;;;;5.20;1.90;;;28.30;42.20;;;;;;4867993;29;20029;-78
2023/07/10 13:43:51;;;;;;;4.60;1.77;;;28.30;41.00;;;;;;4881010;29;20062;-79
2023/07/10 13:46:20;;;;;;;5.90;2.13;;;28.30;40.90;;;;;;4882385;29;20036;-78
2023/07/10 13:48:48;;;;;;;6.22;2.08;;;28.00;41.70;;;;;;4881122;29;20041;-78
2023/07/10 13:51:13;;;;;;;4.40;1.70;;;28.00;41.60;;;;;;4882393;29;20033;-78
2023/07/10 13:53:42;;;;;;;8.70;1.70;;;28.20;40.10;;;;;;4882584;29;20525;-79
2023/07/10 13:56:18;;;;;;;5.78;1.80;;;28.30;40.70;;;;;;4871478;29;20021;-79
2023/07/10 13:58:44;;;;;;;5.97;1.70;;;28.30;39.90;;;;;;4891527;29;20033;-80
2023/07/10 14:01:12;;;;;;;3.55;1.50;;;28.30;39.70;;;;;;4881383;29;20097;-79
2023/07/10 14:03:39;;;;;;;6.13;2.15;;;28.30;40.00;;;;;;4871757;29;20582;-78
2023/07/10 14:06:24;;;;;;;4.07;1.70;;;28.40;41.10;;;;;;4882023;29;20048;-79
2023/07/10 14:08:51;;;;;;;5.00;1.85;;;28.50;42.10;;;;;;4881463;29;20064;-78
2023/07/10 14:11:18;;;;;;;6.38;1.83;;;28.60;40.30;;;;;;4873856;29;20041;-78
2023/07/10 14:13:44;;;;;;;4.55;1.80;;;28.80;40.60;;;;;;4864835;29;20026;-79
2023/07/10 14:16:17;;;;;;;5.78;1.40;;;28.70;39.20;;;;;;4875801;29;20025;-78
2023/07/10 14:18:43;;;;;;;4.57;1.77;;;28.60;39.50;;;;;;4881189;29;20465;-79
2023/07/10 14:21:13;;;;;;;4.47;1.70;;;28.60;39.20;;;;;;4863473;29;20041;-79
2023/07/10 14:23:40;;;;;;;6.15;1.55;;;28.60;41.20;;;;;;4878631;29;20029;-79
2023/07/10 14:26:18;;;;;;;7.50;2.03;;;28.50;40.80;;;;;;4880530;29;20033;-78
2023/07/10 14:28:44;;;;;;;5.70;1.80;;;28.50;40.50;;;;;;4881667;29;20017;-79
2023/07/10 14:31:13;;;;;;;7.45;2.10;;;28.40;41.50;;;;;;4875528;29;20132;-79
2023/07/10 14:33:39;;;;;;;4.53;2.00;;;28.30;41.20;;;;;;4873978;29;20119;-79
2023/07/10 14:36:20;;;;;;;7.35;1.90;;;28.10;41.40;;;;;;4888008;29;20060;-78
2023/07/10 14:38:46;;;;;;;6.57;2.40;;;28.00;42.10;;;;;;4879505;29;20116;-85
2023/07/10 14:41:16;;;;;;;4.63;2.00;;;28.00;41.30;;;;;;4880751;29;20092;-87
2023/07/10 14:43:43;;;;;;;8.05;2.20;;;27.80;42.20;;;;;;4881279;29;20029;-84
2023/07/10 14:46:28;;;;;;;5.18;1.92;;;27.80;42.80;;;;;;4866997;29;20094;-86
2023/07/10 14:48:53;;;;;;;5.78;1.88;;;28.00;41.90;;;;;;4861252;29;20405;-77
2023/07/10 14:51:19;;;;;;;9.23;2.13;;;27.90;41.10;;;;;;4856605;29;20040;-79
2023/07/10 14:53:44;;;;;;;4.43;1.80;;;28.00;41.90;;;;;;4878958;29;20039;-79
2023/07/10 14:56:14;;;;;;;7.35;2.10;;;28.00;41.90;;;;;;4878577;29;20120;-78
2023/07/10 14:58:40;;;;;;;4.78;1.73;;;28.20;42.00;;;;;;4880830;29;20017;-79
2023/07/10 15:01:11;;;;;;;6.97;1.85;;;28.00;41.40;;;;;;4881036;29;20033;-79
2023/07/10 15:03:37;;;;;;;4.63;1.70;;;27.90;41.80;;;;;;4876847;29;20021;-79
2023/07/10 15:06:10;;;;;;;6.40;1.90;;;28.00;42.60;;;;;;4880788;29;20032;-79
2023/07/10 15:08:38;;;;;;;6.03;1.75;;;28.10;41.80;;;;;;4875601;29;20032;-79
2023/07/10 15:11:04;;;;;;;6.47;1.92;;;28.00;39.70;;;;;;4879010;29;20033;-79
2023/07/10 15:13:31;;;;;;;7.38;2.97;;;28.10;40.30;;;;;;4880606;29;20024;-79
2023/07/10 15:16:02;;;;;;;4.32;1.75;;;28.10;40.40;;;;;;4879952;29;20105;-79
2023/07/10 15:18:31;;;;;;;5.05;1.70;;;28.20;40.80;;;;;;4878659;29;20031;-80
2023/07/10 15:20:58;;;;;;;4.88;1.80;;;28.30;40.20;;;;;;4879913;29;20047;-79
2023/07/10 15:23:27;;;;;;;4.20;1.38;;;28.30;40.30;;;;;;4880152;29;20035;-79
2023/07/10 15:25:58;;;;;;;6.75;2.15;;;28.30;40.00;;;;;;4877553;29;20100;-79
2023/07/10 15:28:23;;;;;;;5.13;1.85;;;28.10;40.30;;;;;;4880235;29;20024;-79
2023/07/10 15:30:55;;;;;;;5.88;2.00;;;28.10;40.50;;;;;;4880556;29;20133;-79
2023/07/10 15:33:23;;;;;;;3.30;1.63;;;28.10;41.00;;;;;;4878297;29;20034;-79
2023/07/10 15:35:49;;;;;;;4.78;1.52;;;28.10;41.00;;;;;;4876198;29;20097;-79
2023/07/10 15:38:18;;;;;;;5.93;1.73;;;28.10;41.30;;;;;;4889281;29;20025;-79
2023/07/10 15:40:53;;;;;;;6.25;1.80;;;28.10;39.10;;;;;;4887376;29;20609;-77
2023/07/10 15:43:25;;;;;;;4.25;1.73;;;28.00;40.30;;;;;;4889209;29;20021;-81
2023/07/10 15:45:52;;;;;;;4.22;1.55;;;28.00;40.80;;;;;;4886166;29;20085;-83
2023/07/10 15:48:18;;;;;;;6.15;1.80;;;28.00;40.60;;;;;;4893727;29;20029;-80
2023/07/10 15:50:43;;;;;;;5.50;2.08;;;28.00;40.30;;;;;;4887912;29;20029;-80
2023/07/10 15:53:17;;;;;;;3.72;1.40;;;28.00;40.30;;;;;;4889556;29;20020;-81
2023/07/10 15:55:43;;;;;;;6.80;1.98;;;27.90;39.90;;;;;;4890553;29;20036;-80
2023/07/10 15:58:14;;;;;;;3.20;1.40;;;27.90;39.80;;;;;;4879255;29;20519;-81
2023/07/10 16:00:42;;;;;;;5.32;1.50;;;27.80;40.40;;;;;;4877607;29;20040;-81
2023/07/10 16:03:32;;;;;;;4.72;1.50;;;27.80;41.40;;;;;;4878977;29;20064;-80
2023/07/10 16:06:03;;;;;;;6.47;1.60;;;27.80;40.40;;;;;;4879364;29;20033;-80
2023/07/10 16:08:34;;;;;;;4.75;2.15;;;27.80;40.80;;;;;;4880629;29;20085;-81
2023/07/10 16:11:13;;;;;;;3.25;1.30;;;27.80;41.20;;;;;;4880442;29;20068;-81
2023/07/10 16:13:39;;;;;;;4.60;1.50;;;27.80;41.40;;;;;;4879624;29;20374;-80
2023/07/10 16:16:05;;;;;;;3.78;1.60;;;27.80;41.40;;;;;;4880248;29;20105;-81
2023/07/10 16:18:35;;;;;;;3.63;1.48;;;27.80;41.70;;;;;;4894091;29;20373;-81
2023/07/10 16:21:21;;;;;;;3.25;1.60;;;27.80;40.40;;;;;;4877369;29;20441;-81
2023/07/10 16:23:47;;;;;;;3.90;1.45;;;27.60;39.90;;;;;;4867851;29;20021;-80
2023/07/10 16:26:15;;;;;;;3.50;1.40;;;27.60;41.40;;;;;;4881293;29;20032;-81
2023/07/10 16:28:41;;;;;;;5.25;1.70;;;27.50;42.20;;;;;;4879450;29;20077;-80
2023/07/10 16:31:15;;;;;;;4.55;1.65;;;27.60;41.90;;;;;;4879007;29;20045;-84
2023/07/10 16:33:42;;;;;;;5.53;1.70;;;27.60;41.60;;;;;;4878353;29;20052;-81
2023/07/10 16:36:13;;;;;;;4.07;1.33;;;27.60;40.80;;;;;;4879180;29;20093;-80
2023/07/10 16:38:39;;;;;;;4.15;1.48;;;27.60;40.80;;;;;;4880231;29;20044;-80
2023/07/10 16:41:10;;;;;;;4.35;2.03;;;27.60;40.70;;;;;;4884395;29;20762;-80
2023/07/10 16:43:36;;;;;;;4.55;1.63;;;27.50;40.60;;;;;;4883922;29;20072;-81
2023/07/10 16:46:02;;;;;;;4.28;1.73;;;27.50;41.90;;;;;;4884653;29;20025;-81
2023/07/10 16:48:29;;;;;;;3.97;1.65;;;27.50;41.10;;;;;;4883977;29;20029;-80
2023/07/10 16:50:58;;;;;;;5.15;1.67;;;27.60;41.50;;;;;;4889042;29;20091;-80
2023/07/10 16:53:40;;;;;;;4.72;1.70;;;27.50;41.50;;;;;;4894651;29;20024;-81
2023/07/10 16:56:09;;;;;;;4.45;1.83;;;27.50;41.50;;;;;;4894183;29;20037;-80
2023/07/10 16:58:37;;;;;;;3.80;1.60;;;27.40;42.20;;;;;;4889551;29;20037;-80
2023/07/10 17:01:20;;;;;;;4.10;1.52;;;27.40;40.90;;;;;;4882464;29;20061;-81
2023/07/10 17:03:49;;;;;;;7.43;1.55;;;27.30;40.70;;;;;;4888133;29;20072;-81
2023/07/10 17:06:17;;;;;;;4.38;1.73;;;27.30;40.60;;;;;;4889701;29;20480;-81
2023/07/10 17:08:43;;;;;;;6.10;2.15;;;27.20;40.70;;;;;;4885777;29;20089;-80
2023/07/10 17:11:11;;;;;;;4.15;1.70;;;27.10;40.90;;;;;;4889731;29;20488;-80
2023/07/10 17:13:38;;;;;;;2.15;1.17;;;27.00;41.20;;;;;;4882062;29;20092;-81
2023/07/10 17:16:05;;;;;;;2.40;1.20;;;26.90;41.00;;;;;;4883403;29;20021;-83
2023/07/10 17:18:31;;;;;;;5.07;1.50;;;26.90;40.70;;;;;;4881809;29;20120;-81
2023/07/10 17:21:00;;;;;;;3.75;1.33;;;26.80;40.90;;;;;;4895262;29;21231;-79
2023/07/10 17:23:35;;;;;;;6.80;1.85;;;26.80;41.40;;;;;;4873230;29;20071;-80
2023/07/10 17:26:01;;;;;;;4.88;1.85;;;26.80;42.10;;;;;;4868294;29;20096;-79
2023/07/10 17:28:32;;;;;;;5.13;2.03;;;26.80;42.00;;;;;;4874291;29;20560;-81
2023/07/10 17:31:01;;;;;;;6.65;1.90;;;26.70;42.30;;;;;;4883101;29;20139;-80
2023/07/10 17:33:41;;;;;;;3.60;1.25;;;26.60;42.10;;;;;;4866547;29;20408;-79